Time;durP1;ratioP1;P1;durP2;ratioP2;P2;SDS_P1;SDS_P2;PMS_P1;PMS_P2;Temp;Humidity;BMP_temperature;BMP_pressure;BME280_temperature;BME280_humidity;BME280_pressure;Samples;Min_cycle;Max_cycle;Signal;HPM_P1;HPM_P2
2021/07/28 00:01:23;;;;;;;6.70;6.10;;;;;;;20.02;100.00;100369.16;4919180;29;20219;-77
2021/07/28 00:03:49;;;;;;;6.43;5.90;;;;;;;19.81;100.00;100373.91;4955823;28;20318;-76
2021/07/28 00:06:25;;;;;;;7.53;5.97;;;;;;;19.84;100.00;100356.69;4953242;28;20784;-77
2021/07/28 00:08:51;;;;;;;7.93;6.13;;;;;;;19.61;100.00;100367.59;4947253;28;20184;-77
2021/07/28 00:11:19;;;;;;;6.40;5.80;;;;;;;19.61;100.00;100353.81;4931917;29;20622;-76
2021/07/28 00:13:47;;;;;;;6.20;5.63;;;;;;;19.66;100.00;100349.69;4922293;29;20275;-77
2021/07/28 00:16:18;;;;;;;6.60;5.93;;;;;;;19.59;100.00;100343.13;4953481;28;20242;-77
2021/07/28 00:24:02;;;;;;;6.82;6.22;;;;;;;19.94;100.00;100347.97;4954564;28;20178;-76
2021/07/28 00:26:29;;;;;;;6.75;6.15;;;;;;;19.96;100.00;100351.19;4953057;28;20301;-76
2021/07/28 00:28:54;;;;;;;7.30;6.70;;;;;;;19.95;100.00;100340.53;4967211;28;20171;-76
2021/07/28 00:31:20;;;;;;;6.63;6.03;;;;;;;19.69;100.00;100343.50;4918613;29;20271;-76
2021/07/28 00:33:46;;;;;;;6.50;5.90;;;;;;;19.84;100.00;100334.63;4950847;29;20184;-75
2021/07/28 00:36:11;;;;;;;6.22;5.72;;;;;;;19.65;100.00;100335.44;4953104;28;20223;-76
2021/07/28 00:38:37;;;;;;;6.30;5.80;;;;;;;19.73;100.00;100336.16;4953385;29;20184;-76
2021/07/28 00:41:07;;;;;;;6.60;6.00;;;;;;;19.54;100.00;100345.28;4916531;29;20231;-75
2021/07/28 00:43:34;;;;;;;7.05;6.35;;;;;;;19.44;100.00;100329.16;4915737;29;20658;-76
2021/07/28 00:46:05;;;;;;;7.10;6.40;;;;;;;19.40;100.00;100328.25;4964915;28;20326;-76
2021/07/28 00:48:33;;;;;;;6.90;6.30;;;;;;;19.33;100.00;100327.97;4953236;28;20226;-75
2021/07/28 00:50:59;;;;;;;6.93;6.32;;;;;;;19.27;100.00;100323.00;4937351;29;20223;-77
2021/07/28 00:53:24;;;;;;;7.38;6.68;;;;;;;19.30;100.00;100317.63;4934096;29;20176;-76
2021/07/28 00:55:53;;;;;;;6.85;6.13;;;;;;;19.33;100.00;100316.94;4937325;29;20969;-76
2021/07/28 00:58:19;;;;;;;7.80;6.75;;;;;;;19.30;100.00;100320.38;4922310;29;20187;-77
2021/07/28 01:00:45;;;;;;;7.07;6.32;;;;;;;19.13;100.00;100312.25;4941733;29;20294;-76
2021/07/28 01:03:11;;;;;;;7.28;6.30;;;;;;;19.39;100.00;100310.88;4950006;29;20214;-76
2021/07/28 01:05:36;;;;;;;7.55;6.85;;;;;;;19.49;100.00;100304.16;4944429;28;20673;-77
2021/07/28 01:08:03;;;;;;;6.75;6.15;;;;;;;19.52;100.00;100308.97;4921295;29;20265;-76
2021/07/28 01:10:29;;;;;;;7.18;6.50;;;;;;;19.51;100.00;100301.88;4944438;28;20310;-76
2021/07/28 01:12:55;;;;;;;6.85;6.15;;;;;;;19.39;100.00;100299.06;4949891;29;20180;-76
2021/07/28 01:15:32;;;;;;;7.45;6.78;;;;;;;19.51;100.00;100290.84;4924892;28;20207;-76
2021/07/28 01:18:06;;;;;;;7.55;6.85;;;;;;;19.55;100.00;100295.34;4936729;29;20182;-79
2021/07/28 01:20:45;;;;;;;7.85;6.97;;;;;;;19.41;100.00;100291.25;4944172;28;20700;-77
2021/07/28 01:23:26;;;;;;;7.97;7.25;;;;;;;19.46;100.00;100288.31;4933831;29;20246;-76
2021/07/28 01:25:52;;;;;;;7.85;6.90;;;;;;;19.35;100.00;100287.13;4943540;28;20234;-76
2021/07/28 01:28:24;;;;;;;7.57;6.65;;;;;;;19.27;100.00;100296.28;4956962;28;20262;-74
2021/07/28 01:31:15;;;;;;;7.57;6.88;;;;;;;19.30;100.00;100290.91;4963406;28;20229;-75
2021/07/28 01:33:46;;;;;;;7.38;6.63;;;;;;;19.17;100.00;100293.91;4965182;28;20188;-76
2021/07/28 01:36:19;;;;;;;7.60;6.90;;;;;;;19.29;100.00;100293.97;4933650;29;20227;-76
2021/07/28 01:38:49;;;;;;;7.75;6.95;;;;;;;19.44;100.00;100290.59;4949190;29;20222;-77
2021/07/28 01:41:15;;;;;;;7.07;6.43;;;;;;;19.33;100.00;100292.16;4952476;29;20227;-76
2021/07/28 01:43:43;;;;;;;7.25;6.28;;;;;;;19.37;100.00;100290.34;4952671;28;20680;-76
2021/07/28 01:46:09;;;;;;;7.78;6.90;;;;;;;19.37;100.00;100284.81;4938867;29;20769;-75
2021/07/28 01:48:34;;;;;;;7.22;6.38;;;;;;;19.48;100.00;100286.00;4929730;29;20216;-76
2021/07/28 01:51:02;;;;;;;7.13;6.43;;;;;;;19.34;100.00;100285.50;4930054;29;20269;-77
2021/07/28 01:53:28;;;;;;;7.28;6.57;;;;;;;19.26;100.00;100283.63;4952713;29;20225;-76
2021/07/28 01:55:54;;;;;;;7.38;6.68;;;;;;;19.32;100.00;100290.53;4929206;29;20278;-76
2021/07/28 01:58:23;;;;;;;7.25;6.47;;;;;;;19.04;100.00;100283.97;4933126;29;20238;-76
2021/07/28 02:00:49;;;;;;;6.68;6.07;;;;;;;18.82;100.00;100288.19;4938291;28;20830;-75
2021/07/28 02:03:17;;;;;;;7.07;6.35;;;;;;;18.77;100.00;100286.44;4952771;28;20222;-77
2021/07/28 02:05:47;;;;;;;6.88;6.28;;;;;;;18.56;100.00;100285.59;4948116;28;20720;-77
2021/07/28 02:08:14;;;;;;;7.05;6.35;;;;;;;18.62;100.00;100291.72;4932861;29;20216;-75
2021/07/28 02:10:46;;;;;;;7.22;6.55;;;;;;;18.62;100.00;100277.97;4936312;29;20210;-77
2021/07/28 02:13:12;;;;;;;6.88;6.10;;;;;;;18.58;100.00;100282.53;4937331;29;20183;-77
2021/07/28 02:15:40;;;;;;;6.88;6.28;;;;;;;18.72;100.00;100267.38;4949643;28;20219;-77
2021/07/28 02:18:08;;;;;;;7.00;6.30;;;;;;;18.72;100.00;100272.09;4932844;29;20176;-76
2021/07/28 02:20:36;;;;;;;6.90;6.20;;;;;;;18.76;100.00;100284.03;4948776;29;20227;-74
2021/07/28 02:23:02;;;;;;;6.95;6.25;;;;;;;18.72;100.00;100274.84;4953409;29;20183;-75
2021/07/28 02:25:28;;;;;;;6.75;5.95;;;;;;;18.76;100.00;100281.28;4951686;28;20222;-75
2021/07/28 02:27:54;;;;;;;7.07;6.47;;;;;;;18.62;100.00;100277.97;4946829;28;20750;-75
2021/07/28 02:30:19;;;;;;;6.55;5.85;;;;;;;18.47;100.00;100275.78;4919759;28;20195;-77
2021/07/28 02:32:47;;;;;;;6.93;6.10;;;;;;;18.68;100.00;100273.88;4937401;29;20185;-77
2021/07/28 02:35:15;;;;;;;6.40;5.80;;;;;;;18.54;100.00;100276.88;4957429;28;20198;-76
2021/07/28 02:37:50;;;;;;;6.72;6.03;;;;;;;18.61;100.00;100276.38;4923184;29;20274;-77
2021/07/28 02:40:17;;;;;;;7.00;5.80;;;;;;;18.63;100.00;100279.59;4938638;29;20203;-76
2021/07/28 02:42:45;;;;;;;6.15;5.53;;;;;;;18.54;100.00;100281.59;4970626;28;20597;-77
2021/07/28 02:45:10;;;;;;;6.82;5.85;;;;;;;18.64;100.00;100272.94;4941803;28;20179;-75
2021/07/28 02:47:36;;;;;;;6.57;5.70;;;;;;;18.42;100.00;100278.72;4944872;29;20215;-76
2021/07/28 02:50:03;;;;;;;6.30;5.22;;;;;;;18.45;100.00;100272.56;4939048;29;20183;-76
2021/07/28 02:52:28;;;;;;;6.47;5.38;;;;;;;18.67;100.00;100278.56;4934393;29;20225;-75
2021/07/28 02:54:54;;;;;;;6.55;5.18;;;;;;;18.49;100.00;100276.25;4942474;29;20214;-74
2021/07/28 02:57:20;;;;;;;5.88;5.18;;;;;;;18.42;100.00;100278.72;4949218;28;20222;-76
2021/07/28 02:59:47;;;;;;;6.03;5.28;;;;;;;18.54;100.00;100281.59;4954580;28;20187;-76
2021/07/28 03:02:16;;;;;;;5.20;4.78;;;;;;;18.54;100.00;100279.63;4931967;28;20591;-76
2021/07/28 03:04:41;;;;;;;6.78;5.13;;;;;;;18.51;100.00;100285.00;4974686;28;20191;-77
2021/07/28 03:07:07;;;;;;;5.72;5.22;;;;;;;18.61;100.00;100281.88;4935667;29;20227;-75
2021/07/28 03:09:32;;;;;;;5.93;5.32;;;;;;;18.40;100.00;100285.72;4938834;29;20222;-76
2021/07/28 03:11:58;;;;;;;5.50;5.00;;;;;;;18.22;100.00;100290.50;4958320;28;20214;-75
2021/07/28 03:14:24;;;;;;;6.82;5.13;;;;;;;18.39;100.00;100292.38;4958664;29;20715;-76
2021/07/28 03:16:50;;;;;;;7.93;5.70;;;;;;;18.36;100.00;100282.81;4922611;29;20270;-76
2021/07/28 03:19:16;;;;;;;6.95;5.22;;;;;;;18.41;100.00;100282.63;4939355;29;20556;-76
2021/07/28 03:21:47;;;;;;;6.22;5.38;;;;;;;18.31;100.00;100283.00;4956505;28;20235;-76
2021/07/28 03:24:12;;;;;;;7.32;5.35;;;;;;;18.27;100.00;100287.53;4958538;28;20187;-76
2021/07/28 03:26:43;;;;;;;6.35;5.50;;;;;;;18.10;100.00;100294.28;4956965;28;20248;-75
2021/07/28 03:29:08;;;;;;;6.15;5.63;;;;;;;18.15;100.00;100292.97;4938708;29;20195;-76
2021/07/28 03:31:34;;;;;;;5.80;5.30;;;;;;;18.18;100.00;100292.28;4944420;29;20219;-76
2021/07/28 03:34:01;;;;;;;6.43;5.28;;;;;;;17.97;100.00;100293.31;4953591;28;20299;-76
2021/07/28 03:36:29;;;;;;;6.38;5.30;;;;;;;17.95;100.00;100294.81;4935807;29;20338;-75
2021/07/28 03:38:55;;;;;;;7.07;5.35;;;;;;;18.01;100.00;100298.97;4953796;29;20588;-75
2021/07/28 03:41:21;;;;;;;6.60;5.20;;;;;;;18.00;100.00;100298.16;4918430;29;20231;-74
2021/07/28 03:43:48;;;;;;;6.32;5.70;;;;;;;18.03;100.00;100299.44;4928836;29;20202;-76
2021/07/28 03:46:19;;;;;;;8.43;5.93;;;;;;;17.84;100.00;100299.03;4948500;28;20230;-75
2021/07/28 03:48:44;;;;;;;7.40;5.88;;;;;;;17.77;100.00;100301.47;4950655;29;20243;-74
2021/07/28 03:51:15;;;;;;;8.43;5.95;;;;;;;17.89;100.00;100302.44;4935221;29;20220;-77
2021/07/28 03:53:42;;;;;;;6.93;6.22;;;;;;;17.81;100.00;100295.00;4964298;28;20187;-75
2021/07/28 03:56:10;;;;;;;6.88;6.18;;;;;;;17.73;100.00;100309.56;4954025;28;20215;-76
2021/07/28 03:58:39;;;;;;;7.63;6.03;;;;;;;17.77;100.00;100293.25;4955125;28;20192;-76
2021/07/28 04:01:04;;;;;;;6.97;6.28;;;;;;;17.71;100.00;100311.03;4921606;28;20219;-76
2021/07/28 04:03:30;;;;;;;6.50;5.90;;;;;;;17.75;100.00;100310.03;4921724;29;20195;-76
2021/07/28 04:05:55;;;;;;;6.45;5.85;;;;;;;17.71;100.00;100305.56;4919381;29;20227;-76
2021/07/28 04:08:21;;;;;;;7.35;6.50;;;;;;;17.73;100.00;100311.53;4933991;29;20211;-77
2021/07/28 04:10:48;;;;;;;7.35;6.40;;;;;;;17.75;100.00;100306.50;4934938;29;20228;-77
2021/07/28 04:13:21;;;;;;;7.80;6.28;;;;;;;17.73;100.00;100301.31;4935262;29;20204;-77
2021/07/28 04:15:47;;;;;;;7.85;6.10;;;;;;;17.71;100.00;100299.22;4948385;28;20262;-78
2021/07/28 04:18:15;;;;;;;6.43;5.82;;;;;;;17.68;100.00;100302.66;4934306;29;20176;-76
2021/07/28 04:20:45;;;;;;;6.90;6.07;;;;;;;17.61;100.00;100305.06;4934807;28;20627;-77
2021/07/28 04:23:13;;;;;;;8.40;6.22;;;;;;;17.62;100.00;100302.00;4938573;29;20179;-77
2021/07/28 04:25:38;;;;;;;7.35;5.90;;;;;;;17.68;100.00;100295.19;4954060;28;20231;-76
2021/07/28 04:28:06;;;;;;;7.05;6.18;;;;;;;17.67;100.00;100293.56;4962790;28;20220;-77
2021/07/28 04:30:34;;;;;;;6.97;6.15;;;;;;;17.69;100.00;100280.34;4915702;28;20259;-76
2021/07/28 04:33:00;;;;;;;7.07;5.78;;;;;;;17.76;100.00;100292.44;4922313;29;20607;-75
2021/07/28 04:35:25;;;;;;;6.38;5.78;;;;;;;17.82;100.00;100282.09;4954475;28;20210;-77
2021/07/28 04:37:53;;;;;;;6.47;5.88;;;;;;;17.80;100.00;100284.31;4953467;29;20258;-77
2021/07/28 04:40:22;;;;;;;6.30;5.70;;;;;;;17.85;100.00;100282.19;4918993;29;20192;-77
2021/07/28 04:42:47;;;;;;;6.53;5.68;;;;;;;17.85;100.00;100273.16;4935756;29;20269;-77
2021/07/28 04:45:13;;;;;;;6.30;5.65;;;;;;;17.81;100.00;100278.50;4970456;28;20248;-76
2021/07/28 04:47:39;;;;;;;6.88;6.25;;;;;;;17.81;100.00;100283.19;4967216;28;20310;-77
2021/07/28 04:50:05;;;;;;;25.50;22.77;;;;;;;17.92;100.00;100276.22;4933644;29;20188;-77
2021/07/28 04:52:33;;;;;;;20.38;18.08;;;;;;;17.86;100.00;100285.78;4916498;29;20184;-76
2021/07/28 04:54:59;;;;;;;7.05;5.72;;;;;;;17.85;100.00;100281.41;4947362;28;20200;-76
2021/07/28 04:57:27;;;;;;;6.85;5.40;;;;;;;17.83;100.00;100278.97;4931736;28;20239;-78
2021/07/28 04:59:53;;;;;;;6.35;5.72;;;;;;;17.83;100.00;100278.97;4946241;29;20183;-77
2021/07/28 05:02:22;;;;;;;7.28;5.28;;;;;;;17.99;100.00;100282.00;4952898;28;20230;-75
2021/07/28 05:04:50;;;;;;;6.85;5.25;;;;;;;18.11;100.00;100271.13;4937003;29;20189;-76
2021/07/28 05:07:17;;;;;;;6.32;5.72;;;;;;;18.26;100.00;100274.13;4898810;29;20261;-77
2021/07/28 05:09:43;;;;;;;6.63;5.63;;;;;;;18.37;100.00;100273.44;4942274;28;20191;-78
2021/07/28 05:12:11;;;;;;;7.40;5.55;;;;;;;18.45;100.00;100269.03;4933847;29;20234;-77
2021/07/28 05:14:36;;;;;;;5.38;4.88;;;;;;;18.29;100.00;100266.03;4938350;29;20198;-78
2021/07/28 05:17:06;;;;;;;5.72;5.13;;;;;;;18.57;100.00;100261.63;4936737;29;20614;-78
2021/07/28 05:19:31;;;;;;;6.80;4.97;;;;;;;18.46;100.00;100268.69;4936237;29;20196;-79
2021/07/28 05:21:57;;;;;;;6.57;5.35;;;;;;;18.24;100.00;100266.22;4938584;29;20223;-79
2021/07/28 05:24:26;;;;;;;5.70;5.20;;;;;;;18.20;100.00;100270.78;4929094;29;20187;-79
2021/07/28 05:26:51;;;;;;;7.15;5.05;;;;;;;18.30;100.00;100264.91;4937828;29;20270;-79
2021/07/28 05:29:20;;;;;;;7.00;5.30;;;;;;;18.24;100.00;100268.97;4953684;29;20176;-76
2021/07/28 05:31:50;;;;;;;6.18;5.05;;;;;;;18.32;100.00;100270.06;4939797;28;20324;-76
2021/07/28 05:34:21;;;;;;;5.82;5.00;;;;;;;18.67;100.00;100275.81;4946537;29;20556;-77
2021/07/28 05:36:52;;;;;;;6.32;5.13;;;;;;;18.64;100.00;100275.69;4956854;28;20227;-78
2021/07/28 05:39:17;;;;;;;6.03;5.43;;;;;;;18.68;100.00;100276.63;4941885;28;20274;-78
2021/07/28 05:41:43;;;;;;;5.95;5.35;;;;;;;18.68;100.00;100273.88;4958165;29;20298;-79
2021/07/28 05:44:11;;;;;;;5.72;5.20;;;;;;;18.81;100.00;100272.78;4959854;29;20183;-80
2021/07/28 05:46:41;;;;;;;6.75;5.22;;;;;;;18.73;100.00;100273.69;4957692;28;20230;-77
2021/07/28 05:49:09;;;;;;;6.05;5.40;;;;;;;18.92;100.00;100277.59;4960204;29;20191;-79
2021/07/28 05:51:37;;;;;;;6.78;5.72;;;;;;;19.03;100.00;100274.13;4923827;29;20218;-78
2021/07/28 05:54:03;;;;;;;6.15;5.15;;;;;;;18.93;100.00;100279.97;4923816;29;20234;-79
2021/07/28 05:56:28;;;;;;;5.72;5.13;;;;;;;19.07;100.00;100279.75;4935919;29;20665;-80
2021/07/28 05:58:56;;;;;;;5.65;5.05;;;;;;;19.12;100.00;100294.13;4952745;29;20187;-76
2021/07/28 06:01:26;;;;;;;5.65;5.07;;;;;;;19.25;100.00;100286.72;4954299;29;20242;-79
2021/07/28 06:03:56;;;;;;;5.80;5.25;;;;;;;18.95;100.00;100280.47;4954742;28;20179;-79
2021/07/28 06:06:26;;;;;;;5.90;4.70;;;;;;;19.24;100.00;100285.91;4917173;29;20239;-80
2021/07/28 06:08:52;;;;;;;6.47;5.50;;;;;;;19.28;100.00;100292.34;4932509;29;20193;-78
2021/07/28 06:11:20;;;;;;;6.97;5.28;;;;;;;19.41;100.00;100286.56;4952180;28;20211;-79
2021/07/28 06:13:50;;;;;;;5.80;5.18;;;;;;;19.60;100.00;100289.63;4956450;29;20191;-78
2021/07/28 06:16:16;;;;;;;6.75;5.03;;;;;;;19.51;100.00;100282.59;4929496;28;20211;-81
2021/07/28 06:18:44;;;;;;;7.00;4.85;;;;;;;19.57;100.00;100290.28;4952642;29;20194;-80
2021/07/28 06:21:09;;;;;;;5.35;4.85;;;;;;;19.62;100.00;100292.03;4968721;28;20227;-80
2021/07/28 06:23:37;;;;;;;5.65;4.88;;;;;;;19.87;100.00;100294.53;4941073;29;20665;-79
2021/07/28 06:26:14;;;;;;;6.07;5.47;;;;;;;19.84;100.00;100287.75;4941699;29;20231;-78
2021/07/28 06:28:40;;;;;;;6.50;5.20;;;;;;;20.10;100.00;100285.50;4951558;29;20242;-77
2021/07/28 06:31:08;;;;;;;6.50;5.90;;;;;;;19.83;100.00;100288.88;4962505;28;20234;-78
2021/07/28 06:33:34;;;;;;;7.93;5.30;;;;;;;20.06;100.00;100287.34;4938379;29;20183;-77
2021/07/28 06:36:04;;;;;;;7.30;5.65;;;;;;;20.14;100.00;100289.16;4922152;29;20228;-76
2021/07/28 06:38:30;;;;;;;6.50;5.18;;;;;;;20.10;100.00;100288.25;4929653;29;20275;-76
2021/07/28 06:40:56;;;;;;;5.75;5.25;;;;;;;20.21;100.00;100286.66;4942541;28;20298;-77
2021/07/28 06:43:26;;;;;;;6.70;5.50;;;;;;;20.27;100.00;100283.31;4937127;29;20211;-80
2021/07/28 06:45:58;;;;;;;6.20;5.60;;;;;;;20.40;100.00;100292.41;4945197;28;20628;-76
2021/07/28 06:48:25;;;;;;;6.65;5.50;;;;;;;20.43;100.00;100296.06;4932925;29;20295;-78
2021/07/28 06:50:55;;;;;;;6.00;5.22;;;;;;;20.48;100.00;100292.28;4956422;28;20246;-78
2021/07/28 06:53:21;;;;;;;5.53;5.03;;;;;;;20.57;100.00;100282.72;4937196;29;20676;-77
2021/07/28 06:55:46;;;;;;;5.35;4.85;;;;;;;20.67;100.00;100287.78;4928569;29;20254;-78
2021/07/28 06:58:14;;;;;;;6.57;5.50;;;;;;;20.44;100.00;100286.66;4967738;28;20186;-76
2021/07/28 07:00:40;;;;;;;7.68;5.18;;;;;;;20.63;100.00;100292.41;4929688;29;20702;-78
2021/07/28 07:03:07;;;;;;;5.35;4.80;;;;;;;20.46;100.00;100298.16;4929965;29;20200;-76
2021/07/28 07:05:37;;;;;;;6.03;5.43;;;;;;;20.63;100.00;100291.63;4935621;28;20242;-76
2021/07/28 07:08:09;;;;;;;5.63;5.07;;;;;;;20.57;100.00;100298.50;4952335;28;20211;-76
2021/07/28 07:10:35;;;;;;;5.30;4.53;;;;;;;20.56;100.00;100294.13;4943521;28;20222;-78
2021/07/28 07:13:00;;;;;;;5.10;4.60;;;;;;;20.59;100.00;100298.94;4927052;29;20549;-80
2021/07/28 07:15:29;;;;;;;4.68;4.20;;;;;;;20.79;100.00;100304.38;4919002;28;20231;-78
2021/07/28 07:17:57;;;;;;;4.88;4.32;;;;;;;20.83;100.00;100308.03;4941699;28;20700;-78
2021/07/28 07:20:22;;;;;;;4.78;4.38;;;;;;;20.88;100.00;100310.56;4974156;28;20233;-78
2021/07/28 07:22:48;;;;;;;5.00;4.50;;;;;;;20.79;100.00;100309.06;4941613;29;20427;-77
2021/07/28 07:25:20;;;;;;;5.50;4.88;;;;;;;20.60;100.00;100304.13;4941214;29;20578;-75
2021/07/28 07:27:46;;;;;;;5.47;4.75;;;;;;;20.59;100.00;100291.47;4955026;29;20281;-76
2021/07/28 07:30:11;;;;;;;5.68;5.07;;;;;;;20.58;100.00;100298.13;4955112;28;20195;-78
2021/07/28 07:32:40;;;;;;;5.93;5.30;;;;;;;20.96;100.00;100301.34;4953147;28;20658;-79
2021/07/28 07:35:08;;;;;;;5.80;4.88;;;;;;;20.95;100.00;100305.22;4920671;29;20184;-76
2021/07/28 07:37:34;;;;;;;6.68;6.07;;;;;;;20.90;100.00;100289.72;4947365;29;20210;-76
2021/07/28 07:40:00;;;;;;;7.30;6.60;;;;;;;21.19;100.00;100294.13;4939628;29;20183;-79
2021/07/28 07:42:28;;;;;;;6.78;6.07;;;;;;;21.17;100.00;100293.66;4941374;29;20215;-75
2021/07/28 07:44:57;;;;;;;6.68;5.90;;;;;;;21.22;100.00;100296.19;4936205;29;20195;-78
2021/07/28 07:47:22;;;;;;;5.95;5.45;;;;;;;21.37;100.00;100290.72;4949002;28;20259;-77
2021/07/28 07:49:50;;;;;;;6.72;6.13;;;;;;;21.44;100.00;100291.75;4938469;29;20735;-77
2021/07/28 07:52:16;;;;;;;7.38;6.55;;;;;;;21.51;100.00;100291.94;4927905;29;20227;-78
2021/07/28 07:54:46;;;;;;;6.55;5.90;;;;;;;21.48;99.91;100291.84;4952164;29;20184;-77
2021/07/28 07:57:12;;;;;;;6.47;5.88;;;;;;;21.53;96.73;100286.06;4944556;28;20704;-76
2021/07/28 07:59:38;;;;;;;7.10;6.50;;;;;;;21.40;98.74;100279.78;4955610;29;20202;-76
2021/07/28 08:02:06;;;;;;;7.50;6.80;;;;;;;21.50;97.73;100272.94;4958568;28;20577;-78
2021/07/28 08:04:32;;;;;;;6.82;6.28;;;;;;;21.49;97.96;100283.22;4900807;29;20207;-76
2021/07/28 08:06:59;;;;;;;7.13;6.43;;;;;;;21.40;98.22;100279.78;4928434;29;20223;-78
2021/07/28 08:09:29;;;;;;;7.32;6.63;;;;;;;21.24;98.60;100281.69;4954105;28;20185;-77
2021/07/28 08:11:57;;;;;;;8.32;6.60;;;;;;;21.40;98.59;100268.72;4950871;28;20598;-76
2021/07/28 08:14:23;;;;;;;6.57;5.97;;;;;;;21.55;98.00;100270.72;4951620;29;20275;-77
2021/07/28 08:16:49;;;;;;;6.57;5.78;;;;;;;22.01;97.05;100268.84;4938470;28;20599;-77
2021/07/28 08:19:15;;;;;;;6.68;5.95;;;;;;;22.05;93.41;100272.50;4970651;28;20191;-80
2021/07/28 08:21:40;;;;;;;7.07;5.60;;;;;;;22.26;93.98;100270.28;4951845;29;20681;-76
2021/07/28 08:24:06;;;;;;;6.53;5.18;;;;;;;21.82;94.00;100269.91;4919720;29;20610;-76
2021/07/28 08:26:34;;;;;;;6.20;5.60;;;;;;;21.89;95.74;100276.41;4933280;29;20302;-78
2021/07/28 08:28:59;;;;;;;5.97;5.38;;;;;;;22.41;91.19;100270.25;4953506;29;20652;-77
2021/07/28 08:31:27;;;;;;;5.75;5.00;;;;;;;22.33;92.73;100270.47;4937940;29;20219;-77
2021/07/28 08:33:53;;;;;;;6.65;5.78;;;;;;;22.29;92.08;100280.66;4950794;29;20195;-76
2021/07/28 08:36:23;;;;;;;5.43;5.00;;;;;;;22.61;92.70;100265.59;4949891;28;20231;-77
2021/07/28 08:38:51;;;;;;;6.57;5.50;;;;;;;22.95;87.35;100265.63;4951406;29;20583;-78
2021/07/28 08:41:19;;;;;;;5.60;5.10;;;;;;;22.46;89.57;100277.50;4923221;29;20218;-76
2021/07/28 08:43:53;;;;;;;7.40;4.85;;;;;;;22.72;88.77;100264.66;4938554;29;20617;-78
2021/07/28 08:46:23;;;;;;;4.68;4.28;;;;;;;22.93;88.85;100265.97;4935422;29;20363;-76
2021/07/28 08:48:48;;;;;;;5.63;4.30;;;;;;;22.82;88.00;100259.38;4949790;28;20245;-76
2021/07/28 08:51:14;;;;;;;4.78;4.10;;;;;;;22.54;87.84;100270.97;4937572;29;20593;-78
2021/07/28 08:53:42;;;;;;;4.50;3.88;;;;;;;22.67;87.43;100266.91;4951983;28;20280;-77
2021/07/28 08:56:07;;;;;;;5.25;4.25;;;;;;;22.73;85.74;100268.22;4915121;28;20284;-77
2021/07/28 08:58:33;;;;;;;4.70;4.30;;;;;;;22.67;87.95;100270.47;4923933;29;20700;-76
2021/07/28 09:01:01;;;;;;;4.90;4.50;;;;;;;22.98;88.53;100275.97;4952702;28;20219;-77
2021/07/28 09:03:27;;;;;;;4.85;4.35;;;;;;;23.34;88.13;100270.81;4942750;29;20187;-76
2021/07/28 09:05:58;;;;;;;5.53;4.30;;;;;;;23.40;85.23;100272.13;4937237;28;20606;-76
2021/07/28 09:08:30;;;;;;;5.03;4.53;;;;;;;23.29;83.67;100265.56;4949758;28;20211;-77
2021/07/28 09:11:05;;;;;;;5.57;4.63;;;;;;;23.11;85.33;100267.13;4969471;28;20219;-76
2021/07/28 09:13:44;;;;;;;4.18;3.80;;;;;;;23.13;86.17;100262.06;4920480;29;20198;-78
2021/07/28 09:16:15;;;;;;;6.35;4.65;;;;;;;23.37;85.83;100268.13;4934070;28;20266;-77
2021/07/28 09:18:42;;;;;;;5.50;4.43;;;;;;;23.56;83.25;100270.06;4944486;28;20187;-77
2021/07/28 09:21:20;;;;;;;5.82;4.32;;;;;;;23.37;81.91;100256.19;4952570;28;20233;-77
2021/07/28 09:23:49;;;;;;;4.22;3.83;;;;;;;23.57;82.09;100256.63;4954998;28;20742;-78
2021/07/28 09:26:33;;;;;;;4.82;3.45;;;;;;;23.54;82.81;100261.31;4930382;29;20238;-76
2021/07/28 09:29:14;;;;;;;4.70;4.20;;;;;;;23.79;82.76;100252.28;4937963;28;20183;-78
2021/07/28 09:32:07;;;;;;;4.20;3.90;;;;;;;24.37;82.74;100245.00;4952646;28;20219;-77
2021/07/28 09:34:42;;;;;;;4.47;3.60;;;;;;;24.14;79.01;100242.63;4914726;29;20713;-76
2021/07/28 09:37:13;;;;;;;3.80;3.50;;;;;;;24.47;79.45;100257.47;4917816;29;20251;-76
2021/07/28 09:39:49;;;;;;;4.60;3.38;;;;;;;24.47;77.75;100247.16;4914147;29;20192;-74
2021/07/28 09:42:18;;;;;;;3.97;3.60;;;;;;;24.37;76.18;100245.00;4930150;29;20243;-78
2021/07/28 09:44:48;;;;;;;4.38;3.35;;;;;;;24.35;75.42;100239.03;4930252;29;20716;-76
2021/07/28 09:47:17;;;;;;;3.13;2.72;;;;;;;24.48;70.41;100245.19;4949374;28;20323;-78
2021/07/28 09:49:50;;;;;;;3.65;3.03;;;;;;;23.97;74.29;100243.09;4952253;29;20223;-76
2021/07/28 09:52:34;;;;;;;4.20;3.47;;;;;;;24.02;74.50;100245.59;4967965;28;20613;-76
2021/07/28 09:55:21;;;;;;;5.65;3.35;;;;;;;24.18;73.39;100249.03;4935952;29;20186;-79
2021/07/28 09:57:59;;;;;;;3.20;2.80;;;;;;;24.00;73.99;100239.59;4949240;29;20693;-75
2021/07/28 10:00:27;;;;;;;5.30;3.00;;;;;;;24.27;72.09;100246.84;4935769;28;20301;-75
2021/07/28 10:03:04;;;;;;;3.67;3.10;;;;;;;24.07;75.93;100248.06;4921990;29;20230;-75
2021/07/28 10:05:30;;;;;;;4.55;2.70;;;;;;;23.71;74.89;100254.13;4933194;28;20258;-77
2021/07/28 10:07:59;;;;;;;3.15;2.60;;;;;;;23.97;74.11;100245.88;4933215;29;20203;-76
2021/07/28 10:10:25;;;;;;;3.42;3.13;;;;;;;24.03;72.36;100241.66;4951813;28;20218;-77
2021/07/28 10:12:50;;;;;;;3.40;3.10;;;;;;;23.84;75.24;100244.47;4936575;29;20187;-76
2021/07/28 10:15:18;;;;;;;3.83;3.13;;;;;;;24.32;72.83;100250.06;4919718;28;20238;-75
2021/07/28 10:17:45;;;;;;;4.07;3.30;;;;;;;24.72;68.99;100247.53;4933160;29;20211;-77
2021/07/28 10:20:14;;;;;;;3.45;2.90;;;;;;;24.49;71.06;100239.25;4946889;28;20677;-76
2021/07/28 10:22:41;;;;;;;4.07;3.55;;;;;;;24.58;69.47;100231.47;4952518;28;20254;-77
2021/07/28 10:25:16;;;;;;;4.05;3.72;;;;;;;24.07;73.11;100234.97;4933007;29;20234;-78
2021/07/28 10:27:49;;;;;;;3.65;3.35;;;;;;;24.48;72.54;100223.75;4950107;29;20246;-78
2021/07/28 10:30:17;;;;;;;4.63;3.80;;;;;;;24.15;73.30;100227.56;4952024;28;20270;-77
2021/07/28 10:32:45;;;;;;;4.28;3.88;;;;;;;23.93;73.45;100216.47;4953168;28;20187;-76
2021/07/28 10:35:36;;;;;;;3.70;3.38;;;;;;;24.03;75.17;100219.44;4907912;28;20191;-75
2021/07/28 10:38:02;;;;;;;5.35;3.50;;;;;;;23.79;75.63;100230.09;4917222;29;20187;-75
2021/07/28 10:40:28;;;;;;;4.03;3.63;;;;;;;23.61;75.77;100229.78;4946602;28;20704;-75
2021/07/28 10:42:54;;;;;;;3.78;3.30;;;;;;;23.31;79.10;100235.47;4968494;28;20183;-74
2021/07/28 10:45:20;;;;;;;4.10;3.13;;;;;;;23.51;79.17;100237.06;4952441;28;20200;-74
2021/07/28 10:47:46;;;;;;;4.65;3.30;;;;;;;24.09;76.72;100227.06;4913725;29;20231;-77
2021/07/28 10:50:20;;;;;;;4.90;3.28;;;;;;;24.41;76.17;100220.88;4937106;28;20665;-79
2021/07/28 10:52:49;;;;;;;3.92;3.50;;;;;;;24.44;76.63;100222.91;4957356;28;20182;-77
2021/07/28 10:55:30;;;;;;;3.67;3.28;;;;;;;24.38;73.14;100216.06;4946001;28;20238;-75
2021/07/28 10:58:10;;;;;;;3.78;3.40;;;;;;;24.15;70.64;100213.69;4952598;29;20266;-77
2021/07/28 11:00:36;;;;;;;3.67;3.38;;;;;;;24.21;74.03;100223.28;4950059;28;20226;-75
2021/07/28 11:03:02;;;;;;;3.95;3.30;;;;;;;24.50;74.84;100207.50;4972860;28;20198;-78
2021/07/28 11:05:31;;;;;;;4.45;3.10;;;;;;;24.34;73.00;100208.03;4966119;28;20227;-76
2021/07/28 11:11:01;;;;;;;3.47;3.17;;;;;;;24.42;73.01;100210.56;4973790;28;20708;-79
2021/07/28 11:13:30;;;;;;;3.53;3.22;;;;;;;24.10;74.91;100205.66;4956760;29;20190;-76
2021/07/28 11:15:56;;;;;;;4.40;3.50;;;;;;;24.10;79.72;100213.97;4926724;29;20287;-75
2021/07/28 11:18:50;;;;;;;4.88;3.90;;;;;;;23.75;89.90;100210.59;4952150;29;20203;-76
2021/07/28 11:21:31;;;;;;;3.53;3.22;;;;;;;23.67;88.30;100205.31;4949508;29;20234;-75
2021/07/28 11:24:01;;;;;;;4.53;4.05;;;;;;;24.09;88.54;100209.63;4939966;29;20191;-76
2021/07/28 11:26:27;;;;;;;3.85;3.53;;;;;;;24.50;86.67;100196.41;4923298;29;20282;-75
2021/07/28 11:28:57;;;;;;;4.22;3.83;;;;;;;24.88;82.64;100190.59;4935375;29;20222;-76
2021/07/28 11:31:35;;;;;;;5.22;3.63;;;;;;;24.85;80.44;100185.75;4966363;28;20233;-75
2021/07/28 11:34:10;;;;;;;4.05;3.67;;;;;;;25.33;75.00;100180.00;4957679;28;20193;-73